AirNav   Pilot Hours Calculator
 
 1063 users online  

74CN Camatta Ranch Airstrip
Paso Robles, California, USA

GOING TO PASO ROBLES?


FAA INFORMATION EFFECTIVE 01 DECEMBER 2022

Location

FAA Identifier: 74CN
Lat/Long: 35-28-34.8900N 120-18-32.4800W
35-28.581500N 120-18.541333W
35.4763583,-120.3090222
(estimated)
Elevation: 1358 ft. / 414 m (estimated)
From city: 21 miles SE of PASO ROBLES, CA
Time zone: UTC -8 (UTC -7 during Daylight Saving Time)
Zip code: 93461

Airport Operations

Airport use: Private use. Permission required prior to landing
Activation date: 05/2010
Control tower: no
ARTCC: LOS ANGELES CENTER
FSS: HAWTHORNE FLIGHT SERVICE STATION
Attendance: UNATNDD
Segmented circle: no

Airport Communications

WX ASOS at PRB (19 nm NW): 120.125 (805-239-3593)

Nearby radio navigation aids

VOR radial/distance  VOR name  Freq  Var
AVEr222/19.1AVENAL VOR/DME117.1016E
PRBr111/19.5PASO ROBLES VORTAC114.3016E
MQOr043/25.8MORRO BAY VORTAC112.4016E
FLWr301/31.6FELLOWS VOR/DME117.5016E
GLJr002/(33.1)GUADALUPE VOR113.0516E

Airport Services

Runway Information

Runway 11/29

Dimensions: 2515 x 35 ft. / 767 x 11 m
Surface: asphalt
RUNWAY 11  RUNWAY 29
Traffic pattern: leftleft
Obstructions: none14 ft. bldg, 412 ft. from runway

Airport Ownership and Management from official FAA records

Ownership: Privately-owned
Owner: DR. ROBERT MORRISSON
9110 CAMATTA CREEK RD
SANTA MARGARITA, CA 93453
Phone 805-238-9509
Manager: DR. ROBERT MORRISSON
9110 CAMATTA CREEK RD
SANTA MARGARITA, CA 93453
Phone 805-238-9509
EASEMENT HOLDER.

Additional Remarks

OWNER DESIRES ARPT NOT BE CHARTED.
FOR CD CTC LOS ANGELES ARTCC AT 661-575-2079.

Instrument Procedures

There are no published instrument procedures at 74CN.

Some nearby airports with instrument procedures:

KPRB - Paso Robles Municipal Airport (19 nm NW)
KSBP - San Luis County Regional Airport (22 nm SW)
KSMX - Santa Maria Public Airport/Capt G Allan Hancock Field (35 nm S)
KVBG - Vandenberg Space Force Base (46 nm S)
KLPC - Lompoc Airport (49 nm S)
 
Loc | Ops | Rwys | IFR | FBO | Links
Com | Nav | Svcs | Stats | Notes
Aerial photo
No photo
 
Sectional chart

 
Airport distance calculator
Flying to Camatta Ranch Airstrip? Find the distance to fly.

From to 74CN

Sunrise and sunset
Times for 06-Dec-2022
 Local
(UTC-8)
 Zulu
(UTC)
Morning civil twilight06:2914:29
Sunrise06:5714:57
Sunset16:4700:47
Evening civil twilight17:1501:15

Current date and time
Zulu (UTC)  07-Dec-2022 03:54:41
Local (UTC-8)  06-Dec-2022 19:54:41
 
METAR
KPRB 
20nm NW 
070253Z AUTO 00000KT 10SM CLR 07/06 A3005 RMK AO2 SLP179 60002 T00720056 53006
KSBP 
22nm SW 
070256Z 00000KT 10SM CLR 09/08 A3006 RMK AO2 SLP181 60008 T00890078 51006
KL52 
27nm SW 
070335Z AUTO 00000KT 7SM CLR 07/07 A3008 RMK A01
KSMX 
35nm S 
070251Z 00000KT 10SM FEW085 09/08 A3007 RMK AO2 RAE02 SLP186 P0000 60001 T00890083 51011
TAF
KPRB 
20nm NW 
062057Z 0621/0718 VRB03KT P6SM VCTS BKN035CB FM070100 24005KT P6SM VCSH OVC050 FM070400 VRB03KT P6SM BKN050 FM070900 00000KT P6SM OVC008
KSBP 
22nm SW 
062206Z 0622/0718 31005KT P6SM -SHRA FEW040 BKN060 OVC080 FM070100 VRB03KT P6SM VCSH BKN040 FM070400 VRB03KT P6SM BKN050 FM070900 00000KT P6SM OVC015
NOTAMs
Click for the latest NOTAMs
NOTAMs are issued by the DoD/FAA and will open in a separate window not controlled by AirNav.

 

 
 

Would you like to see your business listed on this page?

 If your business provides an interesting product or service to pilots, flight crews, aircraft, or users of the Camatta Ranch Airstrip, you should consider listing it here.  To start the listing process, click on the button below
 
Add a business
 

Other Pages about Camatta Ranch Airstrip

Update a link
 
Copyright © AirNav, LLC. All rights reserved. Privacy Policy  Contact